createdAt,value
2018-05-25T00:01:22.052Z,23.30
2018-05-25T00:05:25.747Z,20.30
2018-05-25T00:09:29.461Z,22.23
2018-05-25T00:13:33.192Z,20.53
2018-05-25T00:17:36.260Z,19.77
2018-05-25T00:21:39.572Z,23.37
2018-05-25T00:25:42.657Z,22.87
2018-05-25T00:29:46.116Z,23.30
2018-05-25T00:33:48.960Z,21.60
2018-05-25T00:37:52.438Z,23.33
2018-05-25T00:41:55.425Z,24.20
2018-05-25T00:45:58.158Z,21.77
2018-05-25T00:50:00.938Z,23.83
2018-05-25T00:54:04.193Z,22.13
2018-05-25T00:58:06.966Z,22.07
2018-05-25T01:02:09.820Z,22.03
2018-05-25T01:06:12.564Z,21.47
2018-05-25T01:10:17.230Z,17.70
2018-05-25T01:14:19.960Z,18.60
2018-05-25T01:18:23.446Z,21.50
2018-05-25T01:22:26.564Z,21.77
2018-05-25T01:26:29.457Z,22.97
2018-05-25T01:30:32.323Z,23.73
2018-05-25T01:34:35.380Z,23.17
2018-05-25T01:38:38.126Z,22.03
2018-05-25T01:42:41.924Z,25.07
2018-05-25T01:46:44.681Z,23.20
2018-05-25T01:50:47.975Z,19.07
2018-05-25T01:54:50.823Z,19.37
2018-05-25T01:58:54.712Z,22.43
2018-05-25T02:02:57.800Z,24.90
2018-05-25T02:07:00.700Z,23.80
2018-05-25T02:11:03.613Z,25.20
2018-05-25T02:15:06.431Z,27.83
2018-05-25T02:19:09.271Z,28.43
2018-05-25T02:23:12.796Z,28.13
2018-05-25T02:27:16.328Z,29.20
2018-05-25T02:31:19.149Z,27.13
2018-05-25T02:35:22.456Z,26.37
2018-05-25T02:39:25.161Z,23.97
2018-05-25T02:43:28.352Z,19.57
2018-05-25T02:47:31.162Z,22.57
2018-05-25T02:51:34.243Z,24.90
2018-05-25T02:55:37.074Z,26.20
2018-05-25T02:59:41.069Z,26.47
2018-05-25T03:03:43.785Z,25.90
2018-05-25T03:07:47.090Z,22.67
2018-05-25T03:11:49.803Z,27.43
2018-05-25T03:15:52.622Z,24.50
2018-05-25T03:19:55.774Z,24.23
2018-05-25T03:23:58.617Z,23.60
2018-05-25T03:28:01.520Z,22.83
2018-05-25T03:32:05.685Z,21.73
2018-05-25T03:36:09.545Z,19.57
2018-05-25T03:40:12.640Z,19.77
2018-05-25T03:44:15.356Z,20.37
2018-05-25T03:48:18.659Z,26.80
2018-05-25T03:52:21.842Z,25.37
2018-05-25T03:56:24.568Z,25.57
2018-05-25T04:00:39.128Z,23.57
2018-05-25T04:04:42.904Z,19.73
2018-05-25T04:08:46.041Z,21.87
2018-05-25T04:12:48.991Z,21.27
2018-05-25T04:16:52.360Z,20.93
2018-05-25T04:20:55.731Z,20.30
2018-05-25T04:24:59.209Z,19.13
2018-05-25T04:29:02.538Z,18.93
2018-05-25T04:33:05.700Z,17.80
2018-05-25T04:37:08.613Z,18.83
2018-05-25T04:41:11.800Z,18.97
2018-05-25T04:45:14.541Z,21.53
2018-05-25T04:49:17.257Z,19.23
2018-05-25T04:53:21.107Z,20.83
2018-05-25T04:57:27.379Z,20.70
2018-05-25T05:01:30.319Z,19.20
2018-05-25T05:05:33.130Z,19.30
2018-05-25T05:09:36.285Z,20.10
2018-05-25T05:13:39.112Z,17.70
2018-05-25T05:17:41.840Z,18.43
2018-05-25T05:21:44.723Z,17.03
2018-05-25T05:25:47.617Z,16.27
2018-05-25T05:29:50.589Z,18.37
2018-05-25T05:33:53.391Z,14.87
2018-05-25T05:37:56.513Z,13.80
2018-05-25T05:42:00.384Z,14.20
2018-05-25T05:46:03.309Z,13.90
2018-05-25T05:50:06.112Z,12.67
2018-05-25T05:54:09.060Z,14.63
2018-05-25T05:58:11.782Z,12.80
2018-05-25T06:02:14.580Z,14.07
2018-05-25T06:06:17.831Z,12.60
2018-05-25T06:10:21.473Z,12.83
2018-05-25T06:14:25.441Z,13.30
2018-05-25T06:18:30.189Z,13.03
2018-05-25T06:22:33.668Z,14.40
2018-05-25T06:26:36.837Z,14.53
2018-05-25T06:30:39.865Z,14.13
2018-05-25T06:34:42.644Z,14.90
2018-05-25T06:38:45.923Z,12.80
2018-05-25T06:42:48.644Z,11.63
2018-05-25T06:46:52.379Z,12.57
2018-05-25T06:50:55.431Z,13.73
2018-05-25T06:54:59.102Z,13.50
2018-05-25T06:59:02.005Z,14.10
2018-05-25T07:03:05.241Z,14.33
2018-05-25T07:07:08.022Z,13.13
2018-05-25T07:11:10.839Z,13.70
2018-05-25T07:15:13.767Z,13.60
2018-05-25T07:19:16.620Z,12.20
2018-05-25T07:23:26.606Z,13.50
2018-05-25T07:27:29.834Z,10.83
2018-05-25T07:31:32.942Z,12.07
2018-05-25T07:35:35.854Z,11.63
2018-05-25T07:39:39.330Z,10.97
2018-05-25T07:43:42.909Z,10.57
2018-05-25T07:47:46.113Z,9.20
2018-05-25T07:51:48.897Z,11.07
2018-05-25T07:55:51.613Z,10.90
2018-05-25T07:59:54.456Z,10.90
2018-05-25T08:03:57.492Z,9.57
2018-05-25T08:08:00.434Z,12.00
2018-05-25T08:12:03.498Z,11.10
2018-05-25T08:16:07.464Z,11.90
2018-05-25T08:20:11.120Z,12.20
2018-05-25T08:24:14.345Z,11.80
2018-05-25T08:28:17.190Z,12.30
2018-05-25T08:32:19.985Z,14.10
2018-05-25T08:36:22.940Z,12.93
2018-05-25T08:40:26.112Z,12.98
2018-05-25T08:44:29.136Z,13.70
2018-05-25T08:48:31.933Z,13.60
2018-05-25T08:52:34.876Z,14.50
2018-05-25T08:56:37.808Z,11.53
2018-05-25T09:00:40.670Z,13.27
2018-05-25T09:04:43.708Z,13.00
2018-05-25T09:08:46.511Z,14.17
2018-05-25T09:12:51.929Z,13.27
2018-05-25T09:16:54.868Z,13.50
2018-05-25T09:20:58.150Z,13.93
2018-05-25T09:25:01.024Z,13.20
2018-05-25T09:29:04.334Z,11.47
2018-05-25T09:33:07.197Z,12.90
2018-05-25T09:37:10.138Z,11.60
2018-05-25T09:41:12.853Z,10.20
2018-05-25T09:45:16.713Z,11.43
2018-05-25T09:49:20.301Z,13.17
2018-05-25T09:53:23.064Z,6.77
2018-05-25T09:57:25.942Z,5.37
2018-05-25T10:01:29.697Z,5.77
2018-05-25T10:05:32.986Z,6.73
2018-05-25T10:09:35.761Z,5.17
2018-05-25T10:13:39.353Z,5.07
2018-05-25T10:17:42.173Z,4.80
2018-05-25T10:21:46.116Z,5.83
2018-05-25T10:25:49.038Z,7.53
2018-05-25T10:29:51.881Z,6.40
2018-05-25T10:33:54.842Z,5.60
2018-05-25T10:37:57.735Z,5.43
2018-05-25T10:42:00.546Z,5.17
2018-05-25T10:46:03.253Z,4.67
2018-05-25T10:50:07.069Z,4.20
2018-05-25T10:54:10.347Z,4.90
2018-05-25T10:58:13.222Z,3.53
2018-05-25T11:02:15.988Z,3.83
2018-05-25T11:06:19.061Z,4.63
2018-05-25T11:10:21.761Z,4.50
2018-05-25T11:14:24.659Z,4.70
2018-05-25T11:18:27.562Z,5.50
2018-05-25T11:22:30.373Z,5.20
2018-05-25T11:26:33.294Z,4.70
2018-05-25T11:30:36.025Z,4.87
2018-05-25T11:34:40.066Z,5.43
2018-05-25T11:38:43.579Z,5.10
2018-05-25T11:42:46.384Z,4.43
2018-05-25T11:46:49.635Z,5.33
2018-05-25T11:50:53.203Z,5.70
2018-05-25T11:54:55.928Z,5.60
2018-05-25T11:58:59.474Z,5.90
2018-05-25T12:03:02.637Z,5.70
2018-05-25T12:07:05.759Z,5.10
2018-05-25T12:11:08.710Z,5.47
2018-05-25T12:15:13.489Z,5.10
2018-05-25T12:19:16.405Z,5.00
2018-05-25T12:23:19.375Z,4.97
2018-05-25T12:27:22.472Z,6.33
2018-05-25T12:31:25.420Z,5.50
2018-05-25T12:35:28.318Z,6.00
2018-05-25T12:39:31.336Z,5.63
2018-05-25T12:43:34.200Z,6.67
2018-05-25T12:47:37.152Z,6.67
2018-05-25T12:51:40.521Z,6.73
2018-05-25T12:55:43.443Z,7.83
2018-05-25T12:59:47.525Z,6.43
2018-05-25T13:03:50.560Z,8.40
2018-05-25T13:07:53.297Z,7.50
2018-05-25T13:11:56.405Z,7.70
2018-05-25T13:15:59.919Z,8.10
2018-05-25T13:20:02.820Z,8.93
2018-05-25T13:24:06.584Z,10.90
2018-05-25T13:28:09.691Z,12.77
2018-05-25T13:32:12.906Z,10.80
2018-05-25T13:36:15.662Z,10.30
2018-05-25T13:40:19.316Z,9.33
2018-05-25T13:44:22.626Z,8.50
2018-05-25T13:48:25.665Z,10.77
2018-05-25T13:52:28.503Z,10.80
2018-05-25T13:56:31.440Z,9.60
2018-05-25T14:00:34.629Z,10.80
2018-05-25T14:04:37.737Z,11.03
2018-05-25T14:08:40.626Z,8.10
2018-05-25T14:12:43.417Z,8.87
2018-05-25T14:16:47.277Z,6.97
2018-05-25T14:20:50.461Z,8.07
2018-05-25T14:24:53.264Z,7.20
2018-05-25T14:28:56.368Z,8.70
2018-05-25T14:32:59.490Z,7.70
2018-05-25T14:37:02.308Z,5.80
2018-05-25T14:41:05.103Z,6.40
2018-05-25T14:45:09.815Z,6.83
2018-05-25T14:49:12.623Z,4.60
2018-05-25T14:53:16.173Z,3.83
2018-05-25T14:57:19.111Z,4.33
2018-05-25T15:01:22.041Z,4.40
2018-05-25T15:05:24.895Z,4.40
2018-05-25T15:09:28.566Z,5.27
2018-05-25T15:13:32.249Z,5.63
2018-05-25T15:17:35.145Z,6.80
2018-05-25T15:21:38.485Z,7.47
2018-05-25T15:25:41.247Z,6.50
2018-05-25T15:29:44.278Z,4.00
2018-05-25T15:33:47.140Z,5.00
2018-05-25T15:37:50.896Z,4.40
2018-05-25T15:41:53.724Z,4.40
2018-05-25T15:45:56.847Z,3.67
2018-05-25T15:49:59.732Z,3.80
2018-05-25T15:54:02.921Z,3.50
2018-05-25T15:58:05.730Z,4.20
2018-05-25T16:02:08.605Z,4.40
2018-05-25T16:06:11.425Z,3.83
2018-05-25T16:10:14.421Z,3.73
2018-05-25T16:14:17.213Z,3.53
2018-05-25T16:18:20.034Z,3.40
2018-05-25T16:22:22.929Z,4.10
2018-05-25T16:26:25.641Z,4.70
2018-05-25T16:30:28.691Z,4.00
2018-05-25T16:34:31.493Z,3.70
2018-05-25T16:38:34.707Z,3.60
2018-05-25T16:42:37.610Z,3.97
2018-05-25T16:46:40.473Z,3.70
2018-05-25T16:50:44.866Z,4.90
2018-05-25T16:54:47.721Z,5.33
2018-05-25T16:58:51.703Z,4.87
2018-05-25T17:02:54.392Z,5.17
2018-05-25T17:06:57.210Z,5.00
2018-05-25T17:11:00.212Z,4.47
2018-05-25T17:15:03.118Z,4.80
2018-05-25T17:19:06.378Z,5.60
2018-05-25T17:23:09.073Z,4.90
2018-05-25T17:27:11.963Z,4.97
2018-05-25T17:31:14.796Z,4.60
2018-05-25T17:35:17.688Z,5.27
2018-05-25T17:39:21.297Z,5.03
2018-05-25T17:43:24.001Z,5.30
2018-05-25T17:47:27.597Z,5.60
2018-05-25T17:51:30.428Z,5.70
2018-05-25T17:55:33.516Z,6.03
2018-05-25T17:59:36.533Z,6.60
2018-05-25T18:03:39.314Z,8.20
2018-05-25T18:07:42.353Z,7.37
2018-05-25T18:11:45.159Z,6.40
2018-05-25T18:15:48.025Z,8.00
2018-05-25T18:19:50.861Z,6.63
2018-05-25T18:23:53.734Z,6.83
2018-05-25T18:27:56.455Z,6.17
2018-05-25T18:32:00.221Z,9.10
2018-05-25T18:36:03.024Z,8.37
2018-05-25T18:40:05.816Z,6.80
2018-05-25T18:44:08.810Z,7.20
2018-05-25T18:48:11.612Z,7.67
2018-05-25T18:52:14.788Z,6.70
2018-05-25T18:56:18.529Z,8.30
2018-05-25T19:00:21.653Z,7.40
2018-05-25T19:04:24.524Z,7.53
2018-05-25T19:08:28.181Z,7.20
2018-05-25T19:12:31.697Z,7.87
2018-05-25T19:16:34.577Z,7.37
2018-05-25T19:20:37.506Z,10.10
2018-05-25T19:24:40.291Z,9.83
2018-05-25T19:28:43.483Z,8.33
2018-05-25T19:32:46.492Z,8.00
2018-05-25T19:36:49.321Z,9.17
2018-05-25T19:40:52.608Z,9.23
2018-05-25T19:44:56.229Z,9.50
2018-05-25T19:48:59.098Z,10.93
2018-05-25T19:53:02.021Z,13.10
2018-05-25T19:57:06.486Z,10.63
2018-05-25T20:01:10.263Z,9.43
2018-05-25T20:05:15.798Z,9.60
2018-05-25T20:09:19.095Z,8.13
2018-05-25T20:13:21.961Z,7.80
2018-05-25T20:17:25.950Z,8.43
2018-05-25T20:21:28.852Z,8.10
2018-05-25T20:25:31.583Z,8.20
2018-05-25T20:29:34.699Z,9.97
2018-05-25T20:33:40.241Z,10.10
2018-05-25T20:37:44.740Z,8.10
2018-05-25T20:41:48.614Z,9.03
2018-05-25T20:45:51.774Z,8.67
2018-05-25T20:49:54.981Z,10.80
2018-05-25T20:53:58.513Z,11.90
2018-05-25T20:58:01.338Z,9.37
2018-05-25T21:02:04.085Z,9.80
2018-05-25T21:06:07.653Z,9.27
2018-05-25T21:10:11.038Z,8.27
2018-05-25T21:14:13.836Z,7.97
2018-05-25T21:18:16.558Z,9.00
2018-05-25T21:22:20.197Z,11.43
2018-05-25T21:26:23.564Z,11.63
2018-05-25T21:30:26.487Z,10.53
2018-05-25T21:34:29.278Z,14.47
2018-05-25T21:38:32.117Z,10.80
2018-05-25T21:42:35.791Z,13.67
2018-05-25T21:46:38.792Z,10.17
2018-05-25T21:50:41.601Z,10.40
2018-05-25T21:54:44.512Z,10.60
2018-05-25T21:58:47.391Z,11.70
2018-05-25T22:02:51.330Z,12.60
2018-05-25T22:06:54.183Z,12.40
2018-05-25T22:10:57.420Z,14.10
2018-05-25T22:15:00.188Z,12.10
2018-05-25T22:19:03.821Z,12.90
2018-05-25T22:23:06.701Z,11.67
2018-05-25T22:27:10.888Z,13.77
2018-05-25T22:31:13.903Z,12.53
2018-05-25T22:35:16.746Z,13.13
2018-05-25T22:39:19.683Z,14.30
2018-05-25T22:43:34.648Z,15.20
2018-05-25T22:47:49.257Z,13.37
2018-05-25T22:52:04.628Z,12.70
2018-05-25T22:56:07.752Z,12.87
2018-05-25T23:00:10.917Z,12.90
2018-05-25T23:04:13.725Z,12.10
2018-05-25T23:08:16.628Z,13.80
2018-05-25T23:12:19.513Z,13.47
2018-05-25T23:16:22.425Z,13.63
2018-05-25T23:20:25.316Z,11.43
2018-05-25T23:24:28.127Z,10.50
2018-05-25T23:28:31.213Z,10.90
2018-05-25T23:32:34.109Z,11.03
2018-05-25T23:36:37.371Z,11.40
2018-05-25T23:40:40.208Z,13.83
2018-05-25T23:44:43.886Z,12.50
2018-05-25T23:48:46.836Z,12.97
2018-05-25T23:52:49.824Z,13.60
2018-05-25T23:56:53.496Z,15.10
